| time (UTC) | temp F | wind direction | speed MPH | gust MPH | rain 1hr in | rain 24hr in | rain mn in | humidity % | barometer mb |
| 20260505124817 | 46 | 276 | 9.0 | 11.0 | 0.00 | 0.00 | 0.00 | 61 | 1009.9 |
| 20260505124314 | 45 | 283 | 8.0 | 10.0 | 0.00 | 0.00 | 0.00 | 63 | 1010.0 |
| 20260505123810 | 45 | 265 | 11.0 | 13.0 | 0.00 | 0.00 | 0.00 | 62 | 1010.1 |
| 20260505123307 | 45 | 286 | 9.0 | 13.0 | 0.00 | 0.00 | 0.00 | 64 | 1010.0 |
| 20260505122803 | 45 | 279 | 10.0 | 14.0 | 0.00 | 0.00 | 0.00 | 62 | 1010.0 |
| 20260505122301 | 45 | 283 | 10.0 | 11.0 | 0.00 | 0.00 | 0.00 | 63 | 1010.0 |
| 20260505121757 | 44 | 278 | 9.0 | 10.0 | 0.00 | 0.00 | 0.00 | 64 | 1009.8 |
| 20260505121254 | 44 | 270 | 6.0 | 10.0 | 0.00 | 0.00 | 0.00 | 65 | 1009.9 |
| 20260505120750 | 43 | 280 | 8.0 | 9.0 | 0.00 | 0.00 | 0.00 | 67 | 1009.9 |
| 20260505120246 | 43 | 267 | 7.0 | 8.0 | 0.00 | 0.00 | 0.00 | 68 | 1009.6 |
| 20260505115745 | 43 | 285 | 5.0 | 7.0 | 0.00 | 0.00 | 0.00 | 68 | 1009.4 |
| 20260505115243 | 42 | 288 | 4.0 | 5.0 | 0.00 | 0.00 | 0.00 | 70 | 1009.0 |
| 20260505114740 | 43 | 301 | 2.0 | 3.0 | 0.00 | 0.00 | 0.00 | 68 | 1008.5 |
| 20260505114236 | 43 | 315 | 1.0 | 2.0 | 0.00 | 0.00 | 0.00 | 61 | 1008.5 |
| 20260505113733 | 43 | 298 | 2.0 | 2.0 | 0.00 | 0.00 | 0.00 | 58 | 1008.4 |
| 20260505113229 | 44 | 338 | 1.0 | 1.0 | 0.00 | 0.00 | 0.00 | 58 | 1008.1 |
| 20260505112725 | 43 | 339 | 0.0 | 1.0 | 0.00 | 0.00 | 0.00 | 59 | 1008.1 |
| 20260505112223 | 43 | 314 | 1.0 | 2.0 | 0.00 | 0.00 | 0.00 | 60 | 1008.2 |
| 20260505111723 | 42 | 303 | 2.0 | 2.0 | 0.00 | 0.00 | 0.00 | 61 | 1008.3 |
| 20260505111219 | 42 | 292 | 2.0 | 3.0 | 0.00 | 0.00 | 0.00 | 63 | 1008.4 |
| 20260505110715 | 41 | 270 | 3.0 | 3.0 | 0.00 | 0.00 | 0.00 | 64 | 1008.4 |
| 20260505110213 | 41 | 274 | 2.0 | 2.0 | 0.00 | 0.00 | 0.00 | 65 | 1008.4 |
| 20260505102148 | 43 | 300 | 3.0 | 5.0 | 0.00 | 0.00 | 0.00 | 61 | 1008.3 |
| 20260505101647 | 43 | 317 | 3.0 | 3.0 | 0.00 | 0.00 | 0.00 | 60 | 1008.0 |
| 20260505101143 | 44 | 331 | 2.0 | 3.0 | 0.00 | 0.00 | 0.00 | 59 | 1008.0 |
| 20260505100639 | 44 | 320 | 2.0 | 3.0 | 0.00 | 0.00 | 0.00 | 57 | 1007.8 |
| 20260505100136 | 44 | 312 | 3.0 | 3.0 | 0.00 | 0.00 | 0.00 | 57 | 1008.0 |
| 20260505095632 | 44 | 337 | 3.0 | 6.0 | 0.00 | 0.00 | 0.00 | 56 | 1007.9 |
| 20260505095130 | 44 | 334 | 3.0 | 3.0 | 0.00 | 0.00 | 0.00 | 56 | 1007.5 |
| 20260505094626 | 44 | 333 | 3.0 | 5.0 | 0.00 | 0.00 | 0.00 | 56 | 1007.7 |
| 20260505094122 | 44 | 334 | 4.0 | 6.0 | 0.00 | 0.00 | 0.00 | 55 | 1007.7 |
| 20260505093618 | 45 | 347 | 5.0 | 8.0 | 0.00 | 0.00 | 0.00 | 54 | 1007.7 |
| 20260505093116 | 45 | 350 | 4.0 | 7.0 | 0.00 | 0.00 | 0.00 | 54 | 1007.8 |
| 20260505092613 | 45 | 335 | 7.0 | 8.0 | 0.00 | 0.00 | 0.00 | 53 | 1007.9 |
| 20260505092112 | 46 | 344 | 7.0 | 8.0 | 0.00 | 0.00 | 0.00 | 52 | 1008.1 |
| 20260505091608 | 46 | 350 | 5.0 | 10.0 | 0.00 | 0.00 | 0.00 | 51 | 1008.0 |
| 20260505091106 | 46 | 327 | 12.0 | 18.0 | 0.00 | 0.00 | 0.00 | 50 | 1007.9 |
| 20260505090604 | 46 | 327 | 7.0 | 11.0 | 0.00 | 0.00 | 0.00 | 50 | 1007.6 |
| 20260505085559 | 46 | 335 | 10.0 | 18.0 | 0.00 | 0.00 | 0.00 | 49 | 1007.6 |
| 20260505085057 | 46 | 346 | 9.0 | 11.0 | 0.00 | 0.00 | 0.00 | 51 | 1007.4 |
| 20260505084555 | 46 | 353 | 7.0 | 10.0 | 0.00 | 0.00 | 0.00 | 51 | 1007.2 |
| 20260505084053 | 46 | 348 | 11.0 | 15.0 | 0.00 | 0.00 | 0.00 | 52 | 1007.2 |
| 20260505083549 | 46 | 341 | 5.0 | 14.0 | 0.00 | 0.00 | 0.00 | 54 | 1007.1 |
| 20260505083046 | 46 | 333 | 5.0 | 7.0 | 0.00 | 0.00 | 0.00 | 58 | 1007.1 |
| 20260505082542 | 46 | 321 | 5.0 | 6.0 | 0.00 | 0.00 | 0.00 | 58 | 1007.0 |
| 20260505082039 | 46 | 338 | 3.0 | 5.0 | 0.00 | 0.00 | 0.00 | 58 | 1006.6 |
| 20260505081535 | 46 | 348 | 4.0 | 6.0 | 0.00 | 0.00 | 0.00 | 58 | 1006.5 |
| 20260505081032 | 46 | 334 | 4.0 | 6.0 | 0.00 | 0.00 | 0.00 | 59 | 1006.4 |
| 20260505080529 | 46 | 1 | 5.0 | 10.0 | 0.00 | 0.00 | 0.00 | 58 | 1006.2 |
| 20260505080026 | 46 | 352 | 4.0 | 9.0 | 0.00 | 0.00 | 0.00 | 58 | 1005.9 |
| 20260505075521 | 47 | 3 | 6.0 | 9.0 | 0.00 | 0.00 | 0.00 | 57 | 1006.0 |
| 20260505075018 | 47 | 11 | 6.0 | 10.0 | 0.00 | 0.00 | 0.00 | 57 | 1005.7 |
| 20260505074516 | 47 | 349 | 7.0 | 11.0 | 0.00 | 0.00 | 0.00 | 57 | 1005.6 |
| 20260505074013 | 47 | 334 | 7.0 | 11.0 | 0.00 | 0.00 | 0.00 | 58 | 1005.6 |
| 20260505073510 | 47 | 357 | 7.0 | 13.0 | 0.00 | 0.00 | 0.00 | 59 | 1005.5 |
| 20260505073008 | 47 | 357 | 5.0 | 9.0 | 0.00 | 0.00 | 0.00 | 60 | 1005.9 |
| 20260505072504 | 47 | 3 | 3.0 | 7.0 | 0.00 | 0.00 | 0.00 | 61 | 1005.7 |
| 20260505071959 | 47 | 352 | 7.0 | 9.0 | 0.00 | 0.00 | 0.00 | 58 | 1005.6 |
| 20260505071455 | 48 | 330 | 5.0 | 13.0 | 0.00 | 0.00 | 0.00 | 56 | 1005.8 |
| 20260505070954 | 48 | 313 | 5.0 | 11.0 | 0.00 | 0.00 | 0.00 | 55 | 1005.8 |
| 20260505070450 | 49 | 349 | 9.0 | 14.0 | 0.00 | 0.00 | 0.00 | 55 | 1005.7 |
| 20260505065946 | 49 | 348 | 11.0 | 18.0 | 0.00 | 0.00 | 0.00 | 55 | 1005.5 |
| 20260505065443 | 49 | 1 | 8.0 | 13.0 | 0.00 | 0.00 | 0.00 | 57 | 1005.5 |
| 20260505064939 | 49 | 348 | 11.0 | 17.0 | 0.00 | 0.00 | 0.00 | 56 | 1005.3 |
| 20260505064436 | 49 | 2 | 15.0 | 17.0 | 0.00 | 0.00 | 0.00 | 55 | 1005.0 |
| 20260505063935 | 50 | 359 | 6.0 | 11.0 | 0.00 | 0.00 | 0.00 | 55 | 1005.0 |
| 20260505063431 | 50 | 336 | 10.0 | 17.0 | 0.00 | 0.00 | 0.00 | 53 | 1005.0 |
| 20260505062927 | 51 | 3 | 9.0 | 15.0 | 0.00 | 0.00 | 0.00 | 52 | 1004.9 |
| 20260505062425 | 51 | 355 | 11.0 | 18.0 | 0.00 | 0.00 | 0.00 | 52 | 1004.5 |
| 20260505061921 | 51 | 324 | 9.0 | 16.0 | 0.00 | 0.00 | 0.00 | 51 | 1004.9 |
| 20260505061420 | 51 | 341 | 9.0 | 15.0 | 0.00 | 0.00 | 0.00 | 52 | 1004.8 |
| 20260505060917 | 51 | 343 | 12.0 | 15.0 | 0.00 | 0.00 | 0.00 | 51 | 1004.6 |
| 20260505060414 | 51 | 335 | 13.0 | 16.0 | 0.00 | 0.00 | 0.00 | 51 | 1004.7 |
| 20260505055910 | 51 | 327 | 10.0 | 21.0 | 0.00 | 0.00 | 0.00 | 51 | 1004.7 |
| 20260505055406 | 52 | 2 | 10.0 | 20.0 | 0.00 | 0.00 | 0.00 | 50 | 1004.5 |
| 20260505054903 | 52 | 309 | 14.0 | 17.0 | 0.00 | 0.00 | 0.00 | 50 | 1004.7 |
| 20260505054400 | 52 | 6 | 9.0 | 15.0 | 0.00 | 0.00 | 0.00 | 51 | 1004.5 |
| 20260505053858 | 52 | 352 | 7.0 | 17.0 | 0.00 | 0.00 | 0.00 | 51 | 1004.8 |
| 20260505053355 | 52 | 310 | 11.0 | 22.0 | 0.00 | 0.00 | 0.00 | 51 | 1004.7 |
| 20260505052852 | 53 | 9 | 14.0 | 21.0 | 0.00 | 0.00 | 0.00 | 52 | 1004.6 |
| 20260505052349 | 53 | 304 | 11.0 | 22.0 | 0.00 | 0.00 | 0.00 | 52 | 1004.6 |
| 20260505051846 | 53 | 307 | 11.0 | 17.0 | 0.00 | 0.00 | 0.00 | 52 | 1004.2 |
| 20260505051343 | 54 | 322 | 9.0 | 17.0 | 0.00 | 0.00 | 0.00 | 52 | 1004.2 |
| 20260505050841 | 54 | 330 | 9.0 | 17.0 | 0.00 | 0.00 | 0.00 | 54 | 1004.3 |
| 20260505050340 | 54 | 352 | 10.0 | 15.0 | 0.00 | 0.00 | 0.00 | 53 | 1003.8 |
| 20260505041307 | 56 | 346 | 12.0 | 15.0 | 0.00 | 0.00 | 0.00 | 46 | 1002.8 |
| 20260505040804 | 56 | 314 | 8.0 | 11.0 | 0.00 | 0.00 | 0.00 | 47 | 1002.7 |
| 20260505040301 | 56 | 357 | 8.0 | 10.0 | 0.00 | 0.00 | 0.00 | 47 | 1003.0 |
| 20260505035758 | 57 | 282 | 8.0 | 13.0 | 0.00 | 0.00 | 0.00 | 46 | 1002.8 |
| 20260505035254 | 57 | 302 | 13.0 | 16.0 | 0.00 | 0.00 | 0.00 | 45 | 1003.0 |
| 20260505034751 | 58 | 317 | 15.0 | 21.0 | 0.00 | 0.00 | 0.00 | 43 | 1002.9 |
| 20260505034248 | 57 | 324 | 14.0 | 17.0 | 0.00 | 0.00 | 0.00 | 44 | 1003.1 |
| 20260505033744 | 58 | 316 | 13.0 | 17.0 | 0.00 | 0.00 | 0.00 | 44 | 1002.8 |
| 20260505033242 | 59 | 323 | 17.0 | 21.0 | 0.00 | 0.00 | 0.00 | 42 | 1002.9 |
| 20260505032740 | 59 | 278 | 14.0 | 16.0 | 0.00 | 0.00 | 0.00 | 42 | 1002.5 |
| 20260505032235 | 59 | 158 | 15.0 | 18.0 | 0.00 | 0.00 | 0.00 | 41 | 1002.6 |
| 20260505031733 | 59 | 277 | 14.0 | 21.0 | 0.00 | 0.00 | 0.00 | 40 | 1002.3 |
| 20260505031229 | 59 | 306 | 11.0 | 20.0 | 0.00 | 0.00 | 0.00 | 41 | 1002.3 |
| 20260505030726 | 60 | 296 | 11.0 | 18.0 | 0.00 | 0.00 | 0.00 | 42 | 1002.2 |
| 20260505030222 | 59 | 278 | 15.0 | 17.0 | 0.00 | 0.00 | 0.00 | 40 | 1002.1 |
| 20260505025718 | 59 | 351 | 14.0 | 17.0 | 0.00 | 0.00 | 0.00 | 39 | 1001.7 |
| 20260505025217 | 60 | 300 | 13.0 | 15.0 | 0.00 | 0.00 | 0.00 | 41 | 1001.9 |
| 20260505024715 | 59 | 281 | 14.0 | 16.0 | 0.00 | 0.00 | 0.00 | 42 | 1001.8 |
| 20260505024211 | 60 | 325 | 14.0 | 17.0 | 0.00 | 0.00 | 0.00 | 41 | 1001.6 |
| 20260505023709 | 60 | 139 | 15.0 | 17.0 | 0.00 | 0.00 | 0.00 | 40 | 1001.4 |
| 20260505023206 | 60 | 322 | 10.0 | 13.0 | 0.00 | 0.00 | 0.00 | 41 | 1001.3 |
| 20260505022704 | 61 | 315 | 9.0 | 16.0 | 0.00 | 0.00 | 0.00 | 40 | 1001.0 |
| 20260505022200 | 61 | 40 | 9.0 | 21.0 | 0.00 | 0.00 | 0.00 | 38 | 1001.1 |
| 20260505021657 | 62 | 307 | 14.0 | 16.0 | 0.00 | 0.00 | 0.00 | 37 | 1001.1 |
| 20260505021154 | 62 | 291 | 17.0 | 20.0 | 0.00 | 0.00 | 0.00 | 37 | 1000.9 |
| 20260505020649 | 62 | 318 | 19.0 | 23.0 | 0.00 | 0.00 | 0.00 | 36 | 1000.8 |
| 20260505020145 | 62 | 136 | 17.0 | 24.0 | 0.00 | 0.00 | 0.00 | 39 | 1000.7 |
| 20260505015643 | 62 | 259 | 21.0 | 24.0 | 0.00 | 0.00 | 0.00 | 38 | 1000.5 |
| 20260505015139 | 63 | 346 | 13.0 | 17.0 | 0.00 | 0.00 | 0.00 | 40 | 1000.6 |
| 20260505014636 | 63 | 337 | 12.0 | 18.0 | 0.00 | 0.00 | 0.00 | 40 | 1000.3 |
| 20260505014133 | 63 | 279 | 20.0 | 29.0 | 0.00 | 0.00 | 0.00 | 39 | 999.9 |
| 20260505013631 | 63 | 346 | 19.0 | 24.0 | 0.00 | 0.00 | 0.00 | 39 | 999.9 |
| 20260505013128 | 64 | 340 | 23.0 | 29.0 | 0.00 | 0.00 | 0.00 | 38 | 999.8 |
| 20260505012626 | 64 | 344 | 22.0 | 29.0 | 0.00 | 0.00 | 0.00 | 38 | 999.6 |
| 20260505012122 | 65 | 322 | 29.0 | 35.0 | 0.00 | 0.00 | 0.00 | 38 | 999.5 |
| 20260505011618 | 65 | 310 | 19.0 | 26.0 | 0.00 | 0.00 | 0.00 | 40 | 999.4 |
| 20260505011115 | 65 | 353 | 16.0 | 25.0 | 0.00 | 0.00 | 0.00 | 40 | 999.5 |
| 20260505010611 | 66 | 332 | 18.0 | 29.0 | 0.00 | 0.00 | 0.00 | 40 | 999.2 |
| 20260505010108 | 66 | 29 | 13.0 | 27.0 | 0.00 | 0.00 | 0.00 | 41 | 999.2 |
| 20260505005604 | 67 | 292 | 14.0 | 23.0 | 0.00 | 0.00 | 0.00 | 42 | 998.9 |
| 20260505005101 | 67 | 283 | 14.0 | 23.0 | 0.00 | 0.00 | 0.00 | 42 | 998.7 |
| 20260505004558 | 68 | 301 | 11.0 | 18.0 | 0.00 | 0.00 | 0.00 | 43 | 998.6 |
| 20260505004055 | 68 | 332 | 17.0 | 23.0 | 0.00 | 0.00 | 0.00 | 41 | 998.4 |
| 20260505003552 | 68 | 352 | 12.0 | 18.0 | 0.00 | 0.00 | 0.00 | 43 | 998.4 |
| 20260505003049 | 69 | 351 | 11.0 | 20.0 | 0.00 | 0.00 | 0.00 | 42 | 998.1 |
| 20260505002544 | 70 | 7 | 17.0 | 27.0 | 0.00 | 0.00 | 0.00 | 41 | 997.9 |
| 20260505002043 | 70 | 313 | 12.0 | 21.0 | 0.00 | 0.00 | 0.00 | 42 | 998.1 |
| 20260505001540 | 71 | 352 | 18.0 | 24.0 | 0.00 | 0.00 | 0.00 | 41 | 998.0 |
| 20260505001037 | 71 | 344 | 19.0 | 26.0 | 0.00 | 0.00 | 0.00 | 41 | 998.0 |
| 20260505000535 | 72 | 283 | 12.0 | 18.0 | 0.00 | 0.00 | 0.00 | 42 | 997.9 |
| 20260505000032 | 72 | 332 | 13.0 | 18.0 | 0.00 | 0.00 | 0.00 | 42 | 997.9 |
| 20260504235529 | 72 | 14 | 15.0 | 22.0 | 0.00 | 0.00 | 0.00 | 42 | 997.8 |
| 20260504235025 | 72 | 304 | 15.0 | 17.0 | 0.00 | 0.00 | 0.00 | 42 | 997.8 |
| 20260504234522 | 73 | 332 | 17.0 | 24.0 | 0.00 | 0.00 | 0.00 | 41 | 997.5 |
| 20260504234019 | 73 | 304 | 15.0 | 22.0 | 0.00 | 0.00 | 0.00 | 41 | 997.6 |
| 20260504233514 | 73 | 299 | 18.0 | 27.0 | 0.00 | 0.00 | 0.00 | 41 | 997.5 |
| 20260504233012 | 74 | 344 | 23.0 | 29.0 | 0.00 | 0.00 | 0.00 | 40 | 997.6 |
| 20260504232509 | 75 | 275 | 15.0 | 21.0 | 0.00 | 0.00 | 0.00 | 41 | 997.5 |
| 20260504232007 | 75 | 3 | 16.0 | 25.0 | 0.00 | 0.00 | 0.00 | 41 | 997.2 |
| 20260504231503 | 77 | 352 | 21.0 | 24.0 | 0.00 | 0.00 | 0.00 | 38 | 997.1 |
| 20260504230959 | 78 | 272 | 20.0 | 25.0 | 0.00 | 0.00 | 0.00 | 37 | 996.8 |
| 20260504230455 | 78 | 251 | 11.0 | 18.0 | 0.00 | 0.00 | 0.00 | 36 | 997.0 |
| 20260504225954 | 78 | 218 | 15.0 | 21.0 | 0.00 | 0.00 | 0.00 | 36 | 997.0 |
| 20260504225451 | 77 | 286 | 17.0 | 21.0 | 0.00 | 0.00 | 0.00 | 36 | 997.1 |
| 20260504224948 | 77 | 291 | 13.0 | 20.0 | 0.00 | 0.00 | 0.00 | 38 | 996.9 |
| 20260504224444 | 77 | 271 | 23.0 | 29.0 | 0.00 | 0.00 | 0.00 | 36 | 997.0 |
| 20260504223941 | 77 | 270 | 13.0 | 21.0 | 0.00 | 0.00 | 0.00 | 38 | 997.0 |
| 20260504223437 | 77 | 290 | 27.0 | 33.0 | 0.00 | 0.00 | 0.00 | 35 | 996.8 |
| 20260504222933 | 78 | 271 | 24.0 | 30.0 | 0.00 | 0.00 | 0.00 | 35 | 996.6 |
| 20260504222431 | 78 | 286 | 20.0 | 27.0 | 0.00 | 0.00 | 0.00 | 35 | 997.0 |
| 20260504221929 | 77 | 280 | 29.0 | 33.0 | 0.00 | 0.00 | 0.00 | 35 | 996.9 |
| 20260504221425 | 77 | 271 | 26.0 | 31.0 | 0.00 | 0.00 | 0.00 | 35 | 996.8 |
| 20260504220922 | 77 | 283 | 23.0 | 27.0 | 0.00 | 0.00 | 0.00 | 36 | 996.8 |
| 20260504220419 | 77 | 265 | 30.0 | 34.0 | 0.00 | 0.00 | 0.00 | 35 | 996.9 |
| 20260504215916 | 78 | 279 | 23.0 | 33.0 | 0.00 | 0.00 | 0.00 | 36 | 997.0 |
| 20260504215413 | 78 | 271 | 24.0 | 29.0 | 0.00 | 0.00 | 0.00 | 36 | 996.9 |
| 20260504214909 | 77 | 280 | 20.0 | 27.0 | 0.00 | 0.00 | 0.00 | 36 | 997.0 |
| 20260504214406 | 78 | 285 | 25.0 | 37.0 | 0.00 | 0.00 | 0.00 | 35 | 996.9 |
| 20260504213903 | 79 | 275 | 29.0 | 37.0 | 0.00 | 0.00 | 0.00 | 33 | 996.8 |
| 20260504213358 | 77 | 294 | 15.0 | 23.0 | 0.00 | 0.00 | 0.00 | 38 | 997.2 |
| 20260504212856 | 77 | 271 | 24.0 | 29.0 | 0.00 | 0.00 | 0.00 | 37 | 997.0 |
| 20260504212352 | 77 | 274 | 22.0 | 30.0 | 0.00 | 0.00 | 0.00 | 36 | 997.2 |
| 20260504211850 | 77 | 273 | 16.0 | 22.0 | 0.00 | 0.00 | 0.00 | 38 | 997.2 |
| 20260504211346 | 77 | 275 | 22.0 | 32.0 | 0.00 | 0.00 | 0.00 | 37 | 997.0 |
| 20260504210843 | 78 | 263 | 17.0 | 31.0 | 0.00 | 0.00 | 0.00 | 36 | 997.2 |
| 20260504210340 | 77 | 275 | 25.0 | 29.0 | 0.00 | 0.00 | 0.00 | 35 | 997.4 |
| 20260504205837 | 78 | 267 | 23.0 | 32.0 | 0.00 | 0.00 | 0.00 | 36 | 997.4 |
| 20260504205335 | 77 | 278 | 26.0 | 29.0 | 0.00 | 0.00 | 0.00 | 37 | 997.5 |
| 20260504204833 | 78 | 291 | 24.0 | 31.0 | 0.00 | 0.00 | 0.00 | 35 | 997.6 |
| 20260504204331 | 78 | 275 | 21.0 | 27.0 | 0.00 | 0.00 | 0.00 | 36 | 997.5 |
| 20260504203830 | 78 | 277 | 30.0 | 34.0 | 0.00 | 0.00 | 0.00 | 35 | 997.5 |
| 20260504203327 | 78 | 268 | 30.0 | 40.0 | 0.00 | 0.00 | 0.00 | 35 | 997.5 |
| 20260504202822 | 78 | 288 | 27.0 | 31.0 | 0.00 | 0.00 | 0.00 | 35 | 997.7 |
| 20260504202320 | 78 | 282 | 24.0 | 33.0 | 0.00 | 0.00 | 0.00 | 36 | 997.9 |
| 20260504201816 | 78 | 278 | 32.0 | 35.0 | 0.00 | 0.00 | 0.00 | 36 | 997.6 |
| 20260504201314 | 78 | 260 | 27.0 | 34.0 | 0.00 | 0.00 | 0.00 | 35 | 997.7 |
| 20260504200811 | 77 | 274 | 26.0 | 34.0 | 0.00 | 0.00 | 0.00 | 36 | 998.1 |
| 20260504200308 | 77 | 264 | 25.0 | 31.0 | 0.00 | 0.00 | 0.00 | 36 | 998.0 |
| 20260504195803 | 77 | 270 | 24.0 | 29.0 | 0.00 | 0.00 | 0.00 | 37 | 998.3 |
| 20260504195259 | 77 | 294 | 28.0 | 35.0 | 0.00 | 0.00 | 0.00 | 36 | 998.1 |
| 20260504194757 | 77 | 277 | 33.0 | 42.0 | 0.00 | 0.00 | 0.00 | 36 | 998.0 |
| 20260504194253 | 77 | 270 | 27.0 | 37.0 | 0.00 | 0.00 | 0.00 | 37 | 997.9 |
| 20260504193749 | 77 | 292 | 30.0 | 40.0 | 0.00 | 0.00 | 0.00 | 36 | 997.9 |
| 20260504193247 | 77 | 299 | 28.0 | 34.0 | 0.00 | 0.00 | 0.00 | 36 | 998.1 |
| 20260504192745 | 77 | 276 | 25.0 | 35.0 | 0.00 | 0.00 | 0.00 | 35 | 998.2 |
| 20260504192243 | 77 | 234 | 26.0 | 32.0 | 0.00 | 0.00 | 0.00 | 36 | 998.3 |
| 20260504191741 | 77 | 276 | 29.0 | 37.0 | 0.00 | 0.00 | 0.00 | 35 | 998.4 |
| 20260504191238 | 77 | 272 | 20.0 | 30.0 | 0.00 | 0.00 | 0.00 | 36 | 998.3 |
| 20260504190733 | 77 | 281 | 20.0 | 27.0 | 0.00 | 0.00 | 0.00 | 36 | 998.5 |
| 20260504190230 | 76 | 281 | 27.0 | 42.0 | 0.00 | 0.00 | 0.00 | 36 | 998.5 |
| 20260504185726 | 77 | 272 | 21.0 | 40.0 | 0.00 | 0.00 | 0.00 | 35 | 998.5 |
| 20260504185223 | 76 | 274 | 23.0 | 32.0 | 0.00 | 0.00 | 0.00 | 34 | 998.7 |
| 20260504184719 | 77 | 263 | 29.0 | 33.0 | 0.00 | 0.00 | 0.00 | 35 | 998.4 |
| 20260504184215 | 76 | 271 | 28.0 | 31.0 | 0.00 | 0.00 | 0.00 | 35 | 998.4 |
| 20260504183711 | 76 | 274 | 27.0 | 40.0 | 0.00 | 0.00 | 0.00 | 34 | 998.6 |
| 20260504183208 | 76 | 249 | 29.0 | 39.0 | 0.00 | 0.00 | 0.00 | 34 | 998.6 |
| 20260504182706 | 76 | 257 | 23.0 | 31.0 | 0.00 | 0.00 | 0.00 | 35 | 998.4 |
| 20260504182203 | 75 | 265 | 20.0 | 31.0 | 0.00 | 0.00 | 0.00 | 37 | 998.6 |
| 20260504181701 | 76 | 263 | 29.0 | 34.0 | 0.00 | 0.00 | 0.00 | 36 | 998.7 |
| 20260504181158 | 76 | 274 | 28.0 | 35.0 | 0.00 | 0.00 | 0.00 | 36 | 998.5 |
| 20260504180657 | 76 | 277 | 25.0 | 34.0 | 0.00 | 0.00 | 0.00 | 35 | 998.4 |
| 20260504180155 | 75 | 266 | 21.0 | 27.0 | 0.00 | 0.00 | 0.00 | 35 | 998.6 |
| 20260504175652 | 75 | 283 | 24.0 | 34.0 | 0.00 | 0.00 | 0.00 | 34 | 998.5 |
| 20260504175149 | 75 | 258 | 31.0 | 39.0 | 0.00 | 0.00 | 0.00 | 34 | 998.4 |
| 20260504174647 | 75 | 279 | 29.0 | 35.0 | 0.00 | 0.00 | 0.00 | 35 | 998.4 |
| 20260504174144 | 75 | 253 | 31.0 | 34.0 | 0.00 | 0.00 | 0.00 | 34 | 998.6 |
| 20260504173641 | 76 | 293 | 26.0 | 35.0 | 0.00 | 0.00 | 0.00 | 35 | 998.5 |
| 20260504173138 | 75 | 276 | 26.0 | 35.0 | 0.00 | 0.00 | 0.00 | 34 | 998.7 |
| 20260504172635 | 75 | 276 | 28.0 | 38.0 | 0.00 | 0.00 | 0.00 | 35 | 999.5 |
| 20260504172131 | 75 | 264 | 29.0 | 35.0 | 0.00 | 0.00 | 0.00 | 34 | 998.7 |
| 20260504171627 | 75 | 289 | 29.0 | 38.0 | 0.00 | 0.00 | 0.00 | 33 | 999.0 |
| 20260504171125 | 74 | 282 | 25.0 | 31.0 | 0.00 | 0.00 | 0.00 | 34 | 998.9 |
| 20260504170621 | 74 | 278 | 24.0 | 38.0 | 0.00 | 0.00 | 0.00 | 35 | 999.3 |
| 20260504170119 | 74 | 253 | 36.0 | 42.0 | 0.00 | 0.00 | 0.00 | 33 | 999.2 |
| 20260504151004 | 70 | 257 | 23.0 | 24.0 | 0.00 | 0.00 | 0.00 | 40 | 1000.8 |
| 20260504150502 | 69 | 270 | 18.0 | 27.0 | 0.00 | 0.00 | 0.00 | 42 | 1001.0 |
| 20260504140927 | 64 | 242 | 14.0 | 20.0 | 0.00 | 0.00 | 0.00 | 48 | 1001.7 |
| 20260504140424 | 64 | 274 | 16.0 | 23.0 | 0.00 | 0.00 | 0.00 | 49 | 1001.8 |